createdAt,value
2019-05-26T00:02:23.123Z,76.19
2019-05-26T00:04:50.610Z,76.11
2019-05-26T00:07:30.106Z,75.93
2019-05-26T00:09:45.772Z,76.38
2019-05-26T00:12:15.835Z,76.35
2019-05-26T00:14:40.788Z,75.48
2019-05-26T00:17:08.299Z,75.38
2019-05-26T00:19:35.819Z,75.43
2019-05-26T00:22:03.317Z,75.36
2019-05-26T00:24:30.826Z,75.05
2019-05-26T00:26:58.371Z,75.22
2019-05-26T00:29:25.950Z,75.07
2019-05-26T00:31:53.392Z,74.96
2019-05-26T00:34:20.883Z,74.95
2019-05-26T00:36:48.348Z,74.98
2019-05-26T00:39:15.854Z,74.72
2019-05-26T00:41:43.412Z,74.90
2019-05-26T00:44:14.847Z,75.22
2019-05-26T00:46:42.311Z,75.10
2019-05-26T00:49:09.803Z,75.43
2019-05-26T00:51:37.299Z,75.64
2019-05-26T00:54:04.818Z,75.75
2019-05-26T00:56:32.295Z,76.41
2019-05-26T00:58:59.824Z,76.21
2019-05-26T01:01:27.286Z,76.38
2019-05-26T01:03:54.831Z,76.39
2019-05-26T01:06:22.483Z,75.91
2019-05-26T01:08:50.008Z,75.70
2019-05-26T01:11:17.500Z,75.65
2019-05-26T01:13:46.273Z,75.23
2019-05-26T01:16:13.727Z,75.11
2019-05-26T01:18:41.211Z,74.64
2019-05-26T01:21:08.759Z,74.71
2019-05-26T01:23:36.271Z,75.23
2019-05-26T01:26:04.065Z,75.89
2019-05-26T01:28:31.548Z,76.41
2019-05-26T01:30:58.988Z,76.69
2019-05-26T01:33:26.605Z,76.96
2019-05-26T01:35:54.216Z,77.62
2019-05-26T01:38:24.452Z,77.78
2019-05-26T01:40:51.347Z,77.74
2019-05-26T01:43:18.833Z,77.92
2019-05-26T01:45:46.307Z,77.78
2019-05-26T01:48:14.383Z,77.85
2019-05-26T01:50:41.892Z,77.72
2019-05-26T01:53:09.462Z,77.55
2019-05-26T01:55:36.935Z,77.70
2019-05-26T01:58:04.449Z,77.88
2019-05-26T02:00:31.914Z,77.81
2019-05-26T02:02:59.445Z,77.92
2019-05-26T02:05:27.011Z,78.05
2019-05-26T02:07:54.481Z,77.99
2019-05-26T02:10:22.029Z,77.86
2019-05-26T02:12:49.473Z,77.93
2019-05-26T02:15:18.153Z,78.01
2019-05-26T02:17:45.662Z,78.15
2019-05-26T02:20:13.103Z,77.82
2019-05-26T02:22:41.667Z,77.12
2019-05-26T02:25:09.125Z,77.14
2019-05-26T02:27:36.603Z,77.23
2019-05-26T02:30:06.632Z,77.22
2019-05-26T02:32:34.111Z,76.71
2019-05-26T02:35:01.595Z,76.75
2019-05-26T02:37:29.081Z,76.50
2019-05-26T02:39:56.605Z,76.49
2019-05-26T02:42:24.319Z,76.70
2019-05-26T02:44:51.922Z,76.91
2019-05-26T02:47:19.452Z,77.11
2019-05-26T02:49:46.987Z,77.77
2019-05-26T02:52:14.500Z,78.23
2019-05-26T02:54:41.966Z,78.22
2019-05-26T02:57:09.465Z,78.25
2019-05-26T02:59:37.156Z,78.28
2019-05-26T03:02:04.994Z,78.27
2019-05-26T03:04:32.212Z,78.20
2019-05-26T03:06:59.728Z,78.37
2019-05-26T03:09:27.175Z,78.47
2019-05-26T03:11:54.678Z,78.57
2019-05-26T03:14:22.194Z,78.65
2019-05-26T03:16:49.644Z,78.67
2019-05-26T03:19:17.205Z,78.59
2019-05-26T03:21:44.687Z,78.63
2019-05-26T03:24:12.351Z,78.47
2019-05-26T03:26:39.872Z,78.40
2019-05-26T03:29:07.361Z,78.21
2019-05-26T03:31:34.857Z,78.52
2019-05-26T03:34:02.344Z,78.07
2019-05-26T03:36:29.827Z,77.84
2019-05-26T03:38:57.871Z,77.64
2019-05-26T03:41:25.366Z,77.49
2019-05-26T03:43:54.159Z,77.92
2019-05-26T03:46:21.686Z,78.08
2019-05-26T03:48:49.154Z,78.22
2019-05-26T03:51:16.659Z,78.23
2019-05-26T03:53:44.152Z,78.42
2019-05-26T03:56:11.665Z,78.44
2019-05-26T03:58:39.201Z,78.31
2019-05-26T04:01:06.691Z,78.20
2019-05-26T04:03:34.154Z,78.38
2019-05-26T04:06:01.706Z,78.63
2019-05-26T04:08:29.236Z,78.35
2019-05-26T04:10:56.720Z,78.04
2019-05-26T04:13:24.181Z,78.18
2019-05-26T04:15:51.679Z,78.51
2019-05-26T04:18:19.423Z,78.65
2019-05-26T04:20:46.901Z,78.42
2019-05-26T04:23:14.368Z,78.50
2019-05-26T04:25:41.868Z,78.13
2019-05-26T04:28:09.342Z,77.52
2019-05-26T04:30:36.814Z,77.13
2019-05-26T04:33:04.377Z,76.78
2019-05-26T04:35:31.863Z,76.29
2019-05-26T04:37:59.346Z,75.67
2019-05-26T04:40:28.073Z,75.81
2019-05-26T04:42:54.325Z,75.85
2019-05-26T04:45:22.149Z,75.76
2019-05-26T04:47:49.639Z,75.15
2019-05-26T04:50:17.154Z,74.07
2019-05-26T04:53:04.351Z,73.41
2019-05-26T04:55:12.288Z,72.59
2019-05-26T04:57:39.758Z,72.61
2019-05-26T05:00:08.026Z,72.77
2019-05-26T05:02:35.497Z,72.65
2019-05-26T05:05:02.998Z,72.13
2019-05-26T05:07:30.482Z,72.42
2019-05-26T05:09:57.985Z,72.38
2019-05-26T05:12:25.503Z,72.83
2019-05-26T05:14:53.002Z,72.74
2019-05-26T05:17:20.511Z,72.23
2019-05-26T05:19:48.042Z,72.06
2019-05-26T05:22:15.685Z,72.22
2019-05-26T05:24:43.516Z,71.79
2019-05-26T05:27:10.959Z,71.16
2019-05-26T05:29:38.441Z,70.56
2019-05-26T05:32:05.913Z,70.42
2019-05-26T05:34:33.408Z,69.48
2019-05-26T05:37:00.900Z,68.72
2019-05-26T05:39:28.411Z,68.65
2019-05-26T05:41:55.873Z,69.15
2019-05-26T05:44:22.864Z,68.59
2019-05-26T05:46:50.563Z,68.62
2019-05-26T05:49:17.573Z,68.50
2019-05-26T05:51:44.612Z,67.85
2019-05-26T05:54:11.912Z,67.62
2019-05-26T05:56:38.912Z,67.09
2019-05-26T05:59:06.452Z,67.29
2019-05-26T06:01:33.942Z,66.90
2019-05-26T06:04:01.446Z,66.77
2019-05-26T06:06:28.921Z,66.70
2019-05-26T06:08:56.413Z,66.91
2019-05-26T06:11:23.860Z,67.18
2019-05-26T06:13:51.342Z,67.20
2019-05-26T06:16:18.793Z,67.50
2019-05-26T06:18:46.355Z,68.06
2019-05-26T06:21:13.837Z,69.10
2019-05-26T06:23:41.331Z,68.80
2019-05-26T06:26:08.854Z,67.89
2019-05-26T06:28:35.911Z,66.91
2019-05-26T06:31:02.908Z,65.98
2019-05-26T06:33:30.533Z,65.86
2019-05-26T06:35:57.536Z,65.56
2019-05-26T06:38:25.533Z,64.87
2019-05-26T06:40:52.586Z,64.75
2019-05-26T06:43:19.596Z,64.37
2019-05-26T06:45:46.635Z,63.23
2019-05-26T06:48:14.185Z,62.38
2019-05-26T06:50:41.273Z,62.06
2019-05-26T06:53:08.380Z,62.08
2019-05-26T06:55:35.374Z,62.29
2019-05-26T06:58:02.615Z,62.70
2019-05-26T07:00:29.646Z,62.08
2019-05-26T07:02:56.671Z,61.85
2019-05-26T07:05:23.691Z,62.54
2019-05-26T07:07:50.756Z,61.24
2019-05-26T07:10:17.797Z,59.78
2019-05-26T07:12:44.832Z,58.40
2019-05-26T07:15:11.874Z,58.51
2019-05-26T07:17:38.903Z,57.15
2019-05-26T07:20:06.039Z,56.16
2019-05-26T07:22:33.074Z,56.96
2019-05-26T07:25:00.373Z,56.40
2019-05-26T07:27:27.891Z,56.90
2019-05-26T07:29:54.898Z,55.75
2019-05-26T07:32:22.274Z,56.08
2019-05-26T07:34:49.351Z,55.17
2019-05-26T07:37:16.937Z,54.58
2019-05-26T07:39:44.758Z,54.85
2019-05-26T07:42:11.765Z,54.89
2019-05-26T07:44:38.782Z,54.94
2019-05-26T07:47:05.806Z,55.54
2019-05-26T07:49:33.625Z,54.26
2019-05-26T07:52:00.666Z,52.85
2019-05-26T07:54:27.860Z,53.02
2019-05-26T07:56:55.011Z,52.23
2019-05-26T07:59:22.096Z,52.02
2019-05-26T08:01:49.191Z,50.67
2019-05-26T08:04:16.269Z,50.26
2019-05-26T08:06:43.362Z,50.04
2019-05-26T08:09:10.379Z,48.23
2019-05-26T08:11:38.201Z,47.31
2019-05-26T08:14:05.710Z,47.25
2019-05-26T08:16:34.111Z,47.02
2019-05-26T08:19:01.683Z,46.94
2019-05-26T08:21:29.176Z,46.74
2019-05-26T08:23:56.829Z,45.57
2019-05-26T08:26:24.385Z,47.89
2019-05-26T08:28:52.414Z,48.82
2019-05-26T08:31:20.028Z,48.41
2019-05-26T08:33:47.578Z,48.05
2019-05-26T08:36:15.752Z,48.92
2019-05-26T08:38:43.258Z,48.78
2019-05-26T08:41:11.768Z,49.88
2019-05-26T08:43:39.348Z,50.41
2019-05-26T08:46:06.865Z,50.92
2019-05-26T08:48:34.355Z,51.88
2019-05-26T08:51:01.857Z,51.67
2019-05-26T08:53:29.330Z,51.31
2019-05-26T08:55:56.932Z,50.76
2019-05-26T08:58:24.433Z,51.39
2019-05-26T09:00:51.890Z,51.39
2019-05-26T09:03:19.426Z,50.46
2019-05-26T09:05:47.211Z,49.94
2019-05-26T09:08:14.734Z,49.98
2019-05-26T09:10:42.294Z,50.78
2019-05-26T09:13:09.845Z,50.46
2019-05-26T09:15:37.422Z,49.97
2019-05-26T09:18:04.964Z,49.99
2019-05-26T09:20:32.486Z,50.38
2019-05-26T09:23:00.955Z,50.81
2019-05-26T09:25:29.382Z,50.32
2019-05-26T09:27:58.295Z,49.80
2019-05-26T09:30:26.021Z,48.81
2019-05-26T09:32:53.530Z,49.77
2019-05-26T09:35:20.987Z,50.13
2019-05-26T09:37:48.575Z,48.74
2019-05-26T09:40:16.196Z,48.77
2019-05-26T09:42:43.688Z,47.79
2019-05-26T09:45:11.194Z,47.24
2019-05-26T09:47:38.671Z,46.98
2019-05-26T09:50:06.205Z,46.59
2019-05-26T09:52:33.727Z,47.53
2019-05-26T09:55:01.284Z,48.12
2019-05-26T09:57:28.812Z,47.24
2019-05-26T09:59:56.288Z,47.47
2019-05-26T10:02:23.832Z,46.82
2019-05-26T10:04:51.299Z,46.66
2019-05-26T10:07:18.815Z,46.85
2019-05-26T10:09:46.267Z,46.18
2019-05-26T10:12:13.736Z,46.54
2019-05-26T10:14:41.488Z,46.81
2019-05-26T10:17:09.084Z,46.38
2019-05-26T10:19:36.592Z,45.87
2019-05-26T10:22:04.091Z,45.14
2019-05-26T10:24:31.858Z,44.29
2019-05-26T10:26:59.326Z,43.98
2019-05-26T10:29:26.875Z,43.50
2019-05-26T10:31:54.389Z,43.90
2019-05-26T10:34:22.309Z,43.59
2019-05-26T10:36:49.773Z,42.77
2019-05-26T10:39:17.315Z,42.72
2019-05-26T10:41:44.943Z,42.91
2019-05-26T10:46:45.535Z,42.90
2019-05-26T10:49:12.983Z,42.95
2019-05-26T10:51:40.467Z,42.74
2019-05-26T10:54:07.947Z,42.12
2019-05-26T10:56:35.469Z,42.33
2019-05-26T10:59:03.101Z,42.56
2019-05-26T11:01:30.622Z,42.36
2019-05-26T11:03:58.102Z,42.48
2019-05-26T11:06:25.615Z,41.65
2019-05-26T11:08:53.115Z,40.90
2019-05-26T11:11:20.730Z,40.38
2019-05-26T11:14:01.902Z,40.31
2019-05-26T11:16:15.714Z,40.16
2019-05-26T11:18:43.304Z,40.47
2019-05-26T11:21:12.451Z,40.01
2019-05-26T11:23:38.470Z,40.35
2019-05-26T11:26:06.720Z,40.84
2019-05-26T11:28:34.215Z,40.44
2019-05-26T11:31:01.777Z,39.45
2019-05-26T11:33:29.255Z,38.88
2019-05-26T11:35:56.753Z,38.78
2019-05-26T11:38:24.250Z,38.34
2019-05-26T11:40:51.795Z,38.42
2019-05-26T11:43:19.938Z,38.33
2019-05-26T11:45:47.420Z,38.90
2019-05-26T11:48:14.881Z,39.61
2019-05-26T11:50:42.335Z,38.92
2019-05-26T11:53:09.819Z,39.06
2019-05-26T11:55:37.417Z,38.98
2019-05-26T11:58:04.998Z,38.31
2019-05-26T12:00:32.477Z,38.19
2019-05-26T12:03:00.552Z,37.79
2019-05-26T12:05:27.473Z,37.25
2019-05-26T12:07:54.940Z,37.05
2019-05-26T12:10:22.449Z,36.17
2019-05-26T12:12:49.931Z,35.90
2019-05-26T12:15:17.434Z,36.39
2019-05-26T12:17:44.943Z,36.89
2019-05-26T12:20:12.404Z,36.87
2019-05-26T12:22:40.194Z,36.22
2019-05-26T12:25:07.664Z,36.14
2019-05-26T12:27:35.167Z,36.07
2019-05-26T12:30:02.782Z,35.41
2019-05-26T12:32:30.237Z,36.06
2019-05-26T12:34:58.032Z,36.44
2019-05-26T12:37:25.487Z,35.19
2019-05-26T12:39:52.944Z,35.51
2019-05-26T12:42:20.387Z,35.90
2019-05-26T12:44:50.001Z,35.11
2019-05-26T12:47:15.407Z,34.15
2019-05-26T12:49:42.965Z,34.41
2019-05-26T12:52:10.500Z,34.16
2019-05-26T12:54:38.036Z,32.79
2019-05-26T12:57:05.508Z,32.71
2019-05-26T12:59:33.075Z,33.48
2019-05-26T13:02:00.543Z,34.78
2019-05-26T13:04:28.068Z,35.41
2019-05-26T13:06:55.577Z,34.99
2019-05-26T13:09:23.052Z,34.65
2019-05-26T13:11:50.531Z,34.94
2019-05-26T13:14:18.192Z,34.99
2019-05-26T13:16:45.772Z,34.86
2019-05-26T13:19:13.302Z,33.33
2019-05-26T13:21:40.801Z,33.48
2019-05-26T13:24:08.359Z,33.04
2019-05-26T13:26:35.843Z,32.52
2019-05-26T13:29:03.296Z,32.71
2019-05-26T13:31:30.741Z,33.62
2019-05-26T13:33:58.212Z,33.16
2019-05-26T13:36:27.355Z,33.04
2019-05-26T13:38:54.827Z,33.07
2019-05-26T13:41:22.354Z,33.12
2019-05-26T13:43:50.050Z,33.44
2019-05-26T13:46:17.658Z,34.36
2019-05-26T13:48:45.127Z,34.17
2019-05-26T13:51:12.683Z,34.88
2019-05-26T13:53:40.161Z,35.51
2019-05-26T13:56:07.777Z,36.23
2019-05-26T13:58:35.240Z,36.98
2019-05-26T14:01:02.695Z,36.91
2019-05-26T14:03:30.146Z,36.65
2019-05-26T14:05:57.617Z,35.92
2019-05-26T14:08:25.075Z,35.78
2019-05-26T14:10:52.542Z,35.29
2019-05-26T14:13:20.004Z,35.12
2019-05-26T14:15:47.465Z,34.55
2019-05-26T14:18:18.102Z,34.61
2019-05-26T14:20:42.887Z,34.40
2019-05-26T14:23:10.430Z,34.15
2019-05-26T14:25:37.911Z,33.53
2019-05-26T14:28:05.481Z,33.36
2019-05-26T14:30:33.160Z,34.11
2019-05-26T14:33:00.718Z,33.79
2019-05-26T14:35:28.216Z,32.94
2019-05-26T14:37:55.743Z,32.82
2019-05-26T14:40:24.109Z,33.55
2019-05-26T14:42:51.677Z,34.27
2019-05-26T14:45:19.212Z,34.63
2019-05-26T14:47:46.712Z,34.85
2019-05-26T14:50:14.293Z,35.04
2019-05-26T14:52:41.762Z,34.70
2019-05-26T14:55:09.300Z,34.98
2019-05-26T14:57:36.845Z,35.26
2019-05-26T15:00:07.237Z,34.23
2019-05-26T15:02:34.682Z,34.14
2019-05-26T15:05:02.238Z,34.19
2019-05-26T15:07:29.704Z,34.57
2019-05-26T15:09:57.191Z,34.89
2019-05-26T15:12:24.664Z,34.88
2019-05-26T15:14:52.191Z,35.35
2019-05-26T15:17:19.665Z,35.79
2019-05-26T15:19:47.141Z,36.19
2019-05-26T15:22:14.600Z,36.73
2019-05-26T15:24:42.149Z,36.99
2019-05-26T15:27:10.205Z,36.43
2019-05-26T15:29:37.721Z,36.17
2019-05-26T15:32:05.812Z,36.66
2019-05-26T15:34:33.419Z,37.32
2019-05-26T15:37:00.949Z,37.19
2019-05-26T15:39:28.442Z,37.82
2019-05-26T15:41:55.896Z,37.41
2019-05-26T15:44:23.384Z,36.93
2019-05-26T15:46:50.851Z,36.80
2019-05-26T15:49:18.295Z,36.97
2019-05-26T15:51:45.789Z,37.49
2019-05-26T15:54:13.242Z,36.77
2019-05-26T15:56:41.515Z,36.25
2019-05-26T15:59:09.038Z,37.04
2019-05-26T16:01:36.508Z,35.81
2019-05-26T16:04:04.209Z,35.93
2019-05-26T16:06:31.710Z,36.27
2019-05-26T16:08:59.214Z,37.06
2019-05-26T16:11:26.733Z,37.71
2019-05-26T16:13:54.222Z,37.52
2019-05-26T16:16:21.738Z,38.05
2019-05-26T16:18:49.351Z,38.09
2019-05-26T16:21:27.582Z,38.20
2019-05-26T16:23:44.391Z,37.98
2019-05-26T16:26:11.927Z,37.56
2019-05-26T16:28:39.389Z,37.94
2019-05-26T16:31:07.134Z,37.65
2019-05-26T16:33:34.642Z,37.78
2019-05-26T16:36:02.120Z,37.59
2019-05-26T16:38:29.640Z,37.04
2019-05-26T16:40:57.106Z,37.04
2019-05-26T16:43:24.727Z,37.29
2019-05-26T16:45:56.129Z,37.76
2019-05-26T16:48:19.822Z,38.43
2019-05-26T16:50:47.301Z,38.23
2019-05-26T16:53:14.817Z,37.79
2019-05-26T16:55:42.323Z,37.85
2019-05-26T16:58:09.802Z,37.74
2019-05-26T17:00:37.316Z,37.89
2019-05-26T17:03:04.778Z,37.75
2019-05-26T17:05:32.307Z,37.74
2019-05-26T17:07:59.820Z,38.23
2019-05-26T17:10:27.366Z,38.50
2019-05-26T17:12:55.476Z,38.59
2019-05-26T17:15:23.051Z,38.96
2019-05-26T17:17:50.638Z,38.91
2019-05-26T17:20:18.128Z,39.07
2019-05-26T17:22:45.705Z,39.05
2019-05-26T17:25:13.212Z,39.22
2019-05-26T17:27:40.716Z,39.01
2019-05-26T17:30:08.243Z,39.21
2019-05-26T17:32:35.857Z,39.05
2019-05-26T17:35:03.371Z,38.48
2019-05-26T17:37:30.838Z,38.09
2019-05-26T17:39:58.330Z,38.39
2019-05-26T17:42:26.167Z,38.36
2019-05-26T17:44:53.860Z,38.95
2019-05-26T17:47:29.648Z,38.23
2019-05-26T17:49:48.871Z,38.05
2019-05-26T17:52:16.325Z,38.51
2019-05-26T17:54:43.851Z,38.87
2019-05-26T17:57:11.370Z,39.14
2019-05-26T17:59:38.851Z,39.38
2019-05-26T18:04:39.597Z,39.34
2019-05-26T18:07:07.133Z,39.55
2019-05-26T18:09:43.578Z,39.81
2019-05-26T18:12:02.870Z,40.10
2019-05-26T18:14:30.439Z,40.17
2019-05-26T18:16:57.942Z,40.79
2019-05-26T18:19:28.938Z,40.86
2019-05-26T18:21:53.037Z,40.97
2019-05-26T18:24:20.772Z,41.13
2019-05-26T18:26:48.291Z,41.64
2019-05-26T18:29:15.765Z,41.62
2019-05-26T18:31:43.301Z,42.08
2019-05-26T18:34:11.376Z,41.99
2019-05-26T18:36:38.902Z,41.88
2019-05-26T18:39:06.411Z,42.03
2019-05-26T18:41:33.889Z,42.39
2019-05-26T18:44:01.639Z,42.88
2019-05-26T18:46:29.144Z,43.32
2019-05-26T18:48:56.617Z,43.70
2019-05-26T18:51:24.101Z,43.69
2019-05-26T18:53:51.909Z,43.82
2019-05-26T18:56:19.380Z,43.95
2019-05-26T18:58:46.909Z,43.88
2019-05-26T19:01:14.606Z,43.99
2019-05-26T19:03:42.087Z,44.16
2019-05-26T19:06:09.867Z,44.20
2019-05-26T19:08:37.607Z,44.34
2019-05-26T19:11:05.136Z,44.41
2019-05-26T19:13:32.609Z,44.74
2019-05-26T19:16:01.516Z,45.33
2019-05-26T19:18:29.100Z,45.54
2019-05-26T19:20:56.584Z,47.47
2019-05-26T19:23:24.171Z,47.80
2019-05-26T19:25:51.653Z,48.05
2019-05-26T19:28:19.701Z,47.80
2019-05-26T19:30:46.727Z,47.07
2019-05-26T19:33:13.877Z,47.01
2019-05-26T19:35:41.436Z,46.97
2019-05-26T19:38:08.450Z,47.38
2019-05-26T19:40:35.620Z,47.38
2019-05-26T19:43:02.886Z,47.63
2019-05-26T19:45:30.190Z,47.82
2019-05-26T19:47:57.746Z,48.13
2019-05-26T19:50:25.756Z,48.57
2019-05-26T19:52:54.208Z,49.32
2019-05-26T19:55:21.930Z,50.20
2019-05-26T19:57:49.480Z,50.56
2019-05-26T20:00:18.011Z,50.85
2019-05-26T20:02:45.573Z,50.94
2019-05-26T20:05:13.136Z,51.24
2019-05-26T20:07:40.791Z,51.66
2019-05-26T20:10:09.567Z,51.94
2019-05-26T20:12:37.129Z,51.74
2019-05-26T20:15:05.349Z,51.47
2019-05-26T20:17:32.828Z,51.57
2019-05-26T20:20:00.487Z,51.46
2019-05-26T20:22:28.076Z,51.01
2019-05-26T20:24:57.469Z,50.79
2019-05-26T20:27:24.944Z,51.09
2019-05-26T20:29:52.972Z,51.07
2019-05-26T20:32:20.806Z,51.06
2019-05-26T20:34:48.276Z,51.00
2019-05-26T20:37:17.678Z,51.00
2019-05-26T20:39:45.824Z,50.84
2019-05-26T20:42:14.579Z,51.05
2019-05-26T20:44:42.067Z,50.87
2019-05-26T20:47:09.974Z,50.95
2019-05-26T20:49:45.227Z,51.08
2019-05-26T20:52:05.198Z,51.06
2019-05-26T20:54:32.742Z,51.12
2019-05-26T20:57:00.623Z,50.91
2019-05-26T20:59:28.297Z,50.66
2019-05-26T21:01:55.845Z,50.92
2019-05-26T21:04:23.471Z,51.08
2019-05-26T21:06:50.967Z,51.09
2019-05-26T21:09:18.498Z,51.11
2019-05-26T21:11:46.073Z,51.17
2019-05-26T21:14:13.072Z,50.97
2019-05-26T21:16:40.133Z,50.72
2019-05-26T21:19:07.199Z,50.92
2019-05-26T21:21:34.262Z,50.36
2019-05-26T21:24:01.314Z,50.52
2019-05-26T21:26:28.381Z,51.30
2019-05-26T21:28:55.397Z,51.97
2019-05-26T21:31:22.535Z,51.91
2019-05-26T21:33:49.664Z,51.53
2019-05-26T21:38:50.923Z,51.42
2019-05-26T21:41:17.986Z,51.22
2019-05-26T21:43:45.354Z,51.22
2019-05-26T21:46:13.042Z,50.70
2019-05-26T21:48:40.056Z,50.23
2019-05-26T21:51:07.109Z,50.03
2019-05-26T21:53:34.589Z,49.82
2019-05-26T21:56:02.156Z,49.87
2019-05-26T21:58:30.397Z,50.10
2019-05-26T22:00:58.423Z,50.13
2019-05-26T22:03:25.867Z,49.95
2019-05-26T22:05:53.340Z,49.68
2019-05-26T22:08:20.820Z,49.44
2019-05-26T22:10:48.663Z,49.19
2019-05-26T22:13:16.112Z,48.55
2019-05-26T22:15:43.869Z,48.33
2019-05-26T22:18:11.365Z,48.38
2019-05-26T22:20:38.820Z,49.04
2019-05-26T22:23:06.259Z,49.10
2019-05-26T22:25:33.764Z,48.81
2019-05-26T22:28:01.295Z,48.68
2019-05-26T22:30:28.867Z,48.40
2019-05-26T22:32:56.406Z,48.31
2019-05-26T22:35:23.864Z,48.64
2019-05-26T22:37:51.333Z,47.97
2019-05-26T22:40:18.843Z,47.82
2019-05-26T22:42:46.314Z,47.79
2019-05-26T22:45:13.762Z,47.70
2019-05-26T22:47:42.486Z,47.57
2019-05-26T22:50:09.982Z,47.55
2019-05-26T22:52:37.455Z,47.77
2019-05-26T22:55:05.703Z,47.80
2019-05-26T22:57:33.160Z,47.78
2019-05-26T23:00:00.816Z,47.80
2019-05-26T23:02:28.256Z,47.93
2019-05-26T23:04:55.839Z,48.30
2019-05-26T23:07:23.345Z,48.22
2019-05-26T23:09:50.825Z,48.38
2019-05-26T23:12:18.305Z,48.51
2019-05-26T23:14:46.565Z,48.55
2019-05-26T23:17:14.135Z,48.95
2019-05-26T23:19:41.598Z,49.27
2019-05-26T23:22:09.102Z,49.34
2019-05-26T23:24:36.584Z,49.51
2019-05-26T23:27:04.061Z,49.69
2019-05-26T23:29:31.543Z,50.03
2019-05-26T23:31:58.990Z,50.24
2019-05-26T23:34:26.453Z,50.61
2019-05-26T23:36:53.911Z,50.94
2019-05-26T23:39:21.409Z,51.39
2019-05-26T23:41:48.867Z,51.71
2019-05-26T23:44:16.590Z,51.87
2019-05-26T23:46:44.052Z,52.01
2019-05-26T23:49:11.547Z,51.98
2019-05-26T23:51:39.002Z,52.33
2019-05-26T23:54:06.465Z,52.52
2019-05-26T23:56:33.950Z,53.09
2019-05-26T23:59:01.432Z,53.61
